AirNav   Everest Fuels
 
 1095 users online  

NJ78 Kearny Helistop
Kearny, New Jersey, USA

GOING TO KEARNY?


FAA INFORMATION EFFECTIVE 18 JUNE 2020

Location

FAA Identifier: NJ78
Lat/Long: 40-44-13.3650N 074-05-48.5110W
40-44.222750N 074-05.808517W
40.7370458,-74.0968086
(estimated)
Elevation: 9 ft. / 3 m (estimated)
Variation: 13W (1985)
From city: 3 miles SW of KEARNY, NJ
Time zone: UTC -4 (UTC -5 during Standard Time)
Zip code: 07032

Heliport Operations

Heliport use: Private use. Permission required prior to landing
Activation date: 10/1974
Control tower: no
ARTCC: NEW YORK CENTER
FSS: MILLVILLE FLIGHT SERVICE STATION
Attendance: UNATNDD
Wind indicator: yes
Segmented circle: yes

Heliport Communications

WX ASOS at EWR (4 nm SW): PHONE 973-621-2892
WX AWOS-3PT at JRB (5 nm SE): 128.175 (212-425-1534)
WX ASOS at TEB (7 nm N): 132.025 (201-393-0855)
WX AWOS-3 at LDJ (10 nm SW): 124.025 (908-862-7383)
WX ASOS at LGA (10 nm E): PHONE 718-672-6317
WX ASOS at CDW (12 nm NW): 135.5 (973-575-4417)
WX AWOS-3 at MMU (15 nm W): PHONE 973-290-0135
WX ASOS at JFK (16 nm E): 128.725 (718-656-0956)

Nearby radio navigation aids

VOR radial/distance  VOR name  Freq  Var
TEBr204/6.9TETERBORO VOR/DME108.4011W
LGAr267/10.7LA GUARDIA VOR/DME113.1012W
CRIr320/11.9CANARSIE VOR/DME112.3011W
JFKr305/16.1KENNEDY VOR/DME115.9012W
COLr017/25.7COLTS NECK VOR/DME115.4011W
SAXr146/28.2SPARTA VORTAC115.7011W
SBJr083/30.8SOLBERG VOR/DME112.9010W
BWZr107/33.2BROADWAY VOR/DME114.2011W
DPKr277/36.2DEER PARK VOR/DME117.7012W
RBVr040/36.9ROBBINSVILLE VORTAC113.8010W
STWr125/38.3STILLWATER VOR/DME109.6011W

 
NDB name  Hdg/Dist  Freq  Var  ID
TORBY170/4.421412WTE - .
CHATHAM104/15.125413WCAT -.-. .- -
BABYLON291/32.627514WBBN -... -... -.

Heliport Services

Runway Information

Helipad H1

Dimensions: 85 x 85 ft. / 26 x 26 m
Surface: asphalt, in fair condition
Latitude: 40-44.222750N
Longitude: 074-05.808517W
Elevation: 9.0 ft.
Traffic pattern: leftleft
Markings: none, in fair condition

Heliport Ownership and Management from official FAA records

Ownership: Privately-owned
Owner: PUBLIC SERVICE ELECTRIC & GAS CO.
4000 HADLEY ROAD MC 429
SOUTH PLAINFIELD, NJ 07080
Phone 732-489-5653
Manager: MICHAEL J. TODD
4000 HADLEY ROAD MC 429
SOUTH PLAINFIELD, NJ 07080
Phone 732-489-5653
TRANSPORTATION COORDINATOR.

Additional Remarks

FOR CD CTC NEW YORK APCH AT 800-645-3206.

Instrument Procedures

There are no published instrument procedures at NJ78.

Some nearby airports with instrument procedures:

KJRA - West 30th St Heliport (4 nm E)
KEWR - Newark Liberty International Airport (4 nm SW)
KJRB - Downtown Manhattan/Wall Street Heliport (5 nm SE)
6N5 - East 34th Street Heliport (6 nm E)
KTEB - Teterboro Airport (7 nm N)
KLDJ - Linden Airport (10 nm SW)
KLGA - LaGuardia Airport (10 nm E)
KCDW - Essex County Airport (12 nm NW)
KMMU - Morristown Municipal Airport (15 nm W)
KJFK - John F Kennedy International Airport (16 nm E)
 
Loc | Ops | Rwys | IFR | FBO | Links
Com | Nav | Svcs | Stats | Notes
Area around NJ78 (Kearny Helistop)
 
Road maps at: MapQuest Bing Google
 
Aerial photo
No photo
 
Sectional chart

 
Airport distance calculator
Flying to Kearny Helistop? Find the distance to fly.

From to NJ78

Sunrise and sunset
Times for 08-Jul-2020
 Local
(UTC-4)
 Zulu
(UTC)
Morning civil twilight05:0209:02
Sunrise05:3509:35
Sunset20:2900:29
Evening civil twilight21:0101:01

Current date and time
Zulu (UTC)  08-Jul-2020 22:24:05
Local (UTC-4)  08-Jul-2020 18:24:05
 
METAR
KEWR 
5nm SW 
082151Z 26008KT 10SM FEW028 SCT040TCU BKN075 BKN140 OVC250 25/22 A2995 RMK AO2 RAE41 TSE13B18E43 SLP143 TCU W VCSH P0000 T02500222
KJRB 
5nm SE 
082156Z AUTO 00000KT 10SM -RA FEW034 26/23 A2996 RMK AO2 SLP144 P0001 T02560228
KNYC 
7nm NE 
082151Z AUTO VRB05KT 9SM -RA SCT031 BKN038 BKN060 24/23 A2998 RMK AO2 SLP141 P0001 T02440228
KTEB 
8nm N 
082151Z 21005KT 10SM FEW110 26/23 A2994 RMK AO2 RAE47 SLP138 P0002 T02560228
KLDJ 
10nm SW 
082155Z AUTO 00000KT 7SM RA SCT024 BKN034 BKN048 25/22 A2996 RMK AO2 P0008 T02470222
KLGA 
10nm E 
082151Z 18010KT 10SM -RA FEW060 BKN100 BKN120 BKN250 27/22 A2994 RMK AO2 RAB2056 TSE08 SLP138 P0001 T02720217
KCDW 
12nm NW 
082153Z AUTO VRB04KT 10SM FEW031 26/22 A2997 RMK AO2 RAB2059E14 SLP152 P0000 T02610222
KMMU 
15nm W 
082045Z 00000KT 10SM BKN022 BKN034 26/24 A2999
KJFK 
16nm E 
082151Z 17010KT 10SM -RA FEW049 BKN095 BKN110 OVC130 26/23 A2997 RMK AO2 SLP147 P0001 T02560233
TAF
KEWR 
5nm SW 
081950Z 0820/0924 15009KT P6SM FEW020 SCT050 BKN250 TEMPO 0820/0823 3SM TSRA BKN030CB FM090100 19006KT P6SM SCT050 BKN250 FM090500 19005KT P6SM SCT020 SCT050 FM090900 21004KT P6SM BKN020 FM091300 19005KT P6SM SCT100 SCT250 FM091500 15007KT P6SM FEW050 SCT250
KTEB 
8nm N 
081950Z 0820/0924 18007KT P6SM SCT020 SCT045 BKN250 TEMPO 0820/0823 3SM TSRA BKN030CB FM090100 19005KT P6SM SCT050 BKN250 FM090500 19005KT P6SM SCT020 SCT050 FM090900 19003KT P6SM BKN020 FM091300 19005KT P6SM FEW100 SCT250 FM091500 16007KT P6SM FEW050 SCT250
KLGA 
10nm E 
081950Z 0820/0924 18010KT P6SM FEW020 SCT045 BKN250 TEMPO 0820/0824 3SM TSRA BKN030CB FM090300 19006KT P6SM FEW015 SCT050 FM090900 19004KT P6SM BKN015 FM091200 19005KT P6SM SCT100 SCT250 FM091500 14006KT P6SM FEW050 SCT250 FM091900 14010KT P6SM FEW050 FEW250
KJFK 
16nm E 
081950Z 0820/0924 18012KT P6SM FEW020 SCT045 BKN250 TEMPO 0820/0824 5SM -SHRA FM090300 20007KT P6SM FEW015 SCT050 FM090900 20005KT P6SM BKN015 FM091300 18007KT P6SM SCT100 SCT250 FM091900 16011KT P6SM FEW050 FEW250
NOTAMs
Click for the latest NOTAMs
NOTAMs are issued by the DoD/FAA and will open in a separate window not controlled by AirNav.

 

 
 

Would you like to see your business listed on this page?

 If your business provides an interesting product or service to pilots, flight crews, aircraft, or users of the Kearny Helistop, you should consider listing it here.  To start the listing process, click on the button below
 
Add a business
 

Other Pages about Kearny Helistop

Update a link
 
Copyright © AirNav, LLC. All rights reserved. Privacy Policy  Contact